This is the latest recevied weather packets stored in our database for station/object ZB2YN-13. If no packets are shown the sender has not sent any weather packets the latest 10 day(s).
| Time | Temp. | Humidity | Pressure | Rain* | Wind** | Luminosity | Snow |
|---|---|---|---|---|---|---|---|
| 1788156005 | - | - | 757 mmHg | 0 in | - | - | - |
| 1788152406 | 67° F | 84% | 756.8 mmHg | 0 in | - | - | - |
| 1788148805 | 66° F | 84% | 757 mmHg | 0 in | - | - | - |
| 1788145205 | 67° F | 84% | 757.1 mmHg | 0 in | - | - | - |
| 1788141605 | 68° F | 83% | 757.3 mmHg | 0 in | - | - | - |
| 1788138005 | 70° F | 88% | 757.3 mmHg | 0 in | - | - | - |
| 1788134406 | 69° F | 86% | 757.6 mmHg | 0 in | - | - | - |
| 1788130806 | 71° F | 89% | 757.5 mmHg | 0 in | - | - | - |
| 1788127205 | 73° F | 84% | 757.2 mmHg | 0 in | - | - | - |
| 1788123605 | 73° F | 84% | 757.1 mmHg | 0 in | - | - | - |
| 1788120005 | 74° F | 82% | 756.8 mmHg | 0 in | - | - | - |
| 1788116405 | 76° F | 76% | 756.4 mmHg | 0 in | - | - | - |
| 1788112806 | 78° F | 68% | 756.4 mmHg | 0 in | - | - | - |
| 1788109205 | 79° F | 67% | 756.6 mmHg | 0 in | - | - | - |
| 1788105605 | 82° F | 59% | 756.4 mmHg | 0 in | - | - | - |
| 1788102005 | 83° F | 56% | 756.7 mmHg | 0 in | - | - | - |
| 1788098405 | 82° F | 53% | 757.2 mmHg | 0 in | - | - | - |
| 1788094806 | 81° F | 49% | 757.6 mmHg | 0 in | - | - | - |
| 1788091206 | 79° F | 57% | 757.9 mmHg | 0 in | - | - | - |
| 1788087605 | 78° F | 62% | 758.1 mmHg | 0 in | - | - | - |
| 1788084005 | 79° F | 57% | 757.9 mmHg | 0 in | - | - | - |
| 1788080406 | 76° F | 59% | 757.9 mmHg | 0 in | - | - | - |
| 1788076806 | 65° F | 78% | 757.7 mmHg | 0 in | - | - | - |
| 1788073205 | 64° F | 79% | 757.6 mmHg | 0 in | - | - | - |
| 1788069605 | 64° F | 81% | 757.2 mmHg | 0 in | - | - | - |
* Rain latest hour (hover to see other rain measurements)
** Current wind speed in m/s (hover to see current wind gust speed)